Visit other weathersites:

Galway City Weather

Moycullen Weather

Waterford City Weather

Charlestown Weather

Clevedon Weather



Weather Underground History page Text

Daily Summary for October 18, 2017 Units:  Metric    English   Both
« Previous Day
Next Day »
Daily Weekly Monthly Yearly Custom
  Current: High: Low: Average:
Temperature: 12.9 °C 12.9 °C 6.6 °C 9.4 °C
Dew Point: 10.8 °C 10.8 °C 4.8 °C 7.1 °C
Humidity: 87 % 91 % 76 % 86 %
Wind Speed: 7.7 km/h 14.5 km/h 0.0 km/h 4 km/h
Wind Gust: 19.3 km/h 27.4 km/h - -
Wind:NW - - SSW
Pressure: 1001.2 hPa 1012.4 hPa 1001.2 hPa -
Precipitation: 0.0 mm      
Historical Graphs
 
 
Tabular Data for October 18, 2017
Time Temperature Dew Point Pressure Wind Wind Speed Wind Gust Humidity Rainfall Rate (Hourly)
00:03 6.6 °C 5.1 °C 1012.4 hPa East 4.7 km/h 6.4 km/h 90 % 0.0 mm
00:08 6.6 °C 5.1 °C 1012.4 hPa ESE 4.3 km/h 6.4 km/h 90 % 0.0 mm
00:13 6.6 °C 5.1 °C 1012.4 hPa ENE 3.7 km/h 6.4 km/h 90 % 0.0 mm
00:18 6.6 °C 4.9 °C 1012.4 hPa East 4.7 km/h 6.4 km/h 89 % 0.0 mm
00:23 6.7 °C 5.2 °C 1012.1 hPa ENE 4.0 km/h 5.6 km/h 90 % 0.0 mm
00:28 6.8 °C 5.1 °C 1012.1 hPa ENE 3.4 km/h 5.6 km/h 89 % 0.0 mm
00:33 6.8 °C 5.3 °C 1012.1 hPa ENE 3.2 km/h 5.6 km/h 90 % 0.0 mm
00:38 6.7 °C 5.2 °C 1012.1 hPa East 3.7 km/h 5.6 km/h 90 % 0.0 mm
00:43 6.7 °C 5.2 °C 1012.1 hPa East 3.1 km/h 5.6 km/h 90 % 0.0 mm
00:48 6.7 °C 5.2 °C 1012.1 hPa East 3.7 km/h 6.4 km/h 90 % 0.0 mm
00:53 6.6 °C 5.1 °C 1011.7 hPa ENE 3.7 km/h 5.6 km/h 90 % 0.0 mm
00:58 6.6 °C 4.9 °C 1011.7 hPa ESE 2.4 km/h 3.7 km/h 89 % 0.0 mm
01:03 6.7 °C 5.1 °C 1011.7 hPa ENE 2.3 km/h 5.6 km/h 89 % 0.0 mm
01:08 6.8 °C 4.9 °C 1011.7 hPa East 3.4 km/h 5.6 km/h 88 % 0.0 mm
01:14 7.1 °C 4.9 °C 1011.7 hPa East 3.4 km/h 5.6 km/h 86 % 0.0 mm
01:19 7.4 °C 5.3 °C 1011.4 hPa ENE 2.3 km/h 4.8 km/h 86 % 0.0 mm
01:24 7.9 °C 5.4 °C 1011.4 hPa ENE 1.0 km/h 3.7 km/h 84 % 0.0 mm
01:29 8.1 °C 5.4 °C 1011.4 hPa ENE 1.9 km/h 5.6 km/h 83 % 0.0 mm
01:35 7.9 °C 5.1 °C 1011.4 hPa East 2.1 km/h 5.6 km/h 82 % 0.0 mm
01:40 7.3 °C 4.8 °C 1011.4 hPa East 4.3 km/h 8.0 km/h 84 % 0.0 mm
01:45 7.1 °C 4.9 °C 1011.4 hPa East 3.5 km/h 6.4 km/h 86 % 0.0 mm
01:50 6.9 °C 4.9 °C 1011.1 hPa East 3.4 km/h 6.4 km/h 87 % 0.0 mm
01:55 7.3 °C 5.3 °C 1011.1 hPa NE 2.6 km/h 5.6 km/h 87 % 0.0 mm
02:00 7.4 °C 5.3 °C 1011.1 hPa East 2.1 km/h 3.7 km/h 86 % 0.0 mm
02:05 7.3 °C 5.1 °C 1011.1 hPa East 2.3 km/h 4.8 km/h 86 % 0.0 mm
02:10 7.1 °C 5.2 °C 1011.1 hPa East 4.3 km/h 6.4 km/h 88 % 0.0 mm
02:15 6.8 °C 5.2 °C 1011.1 hPa ENE 3.2 km/h 5.6 km/h 89 % 0.0 mm
02:20 6.7 °C 5.2 °C 1010.7 hPa ENE 3.4 km/h 5.6 km/h 90 % 0.0 mm
02:25 6.8 °C 5.4 °C 1010.7 hPa East 3.5 km/h 5.6 km/h 91 % 0.0 mm
02:30 6.8 °C 5.4 °C 1010.7 hPa East 3.7 km/h 6.4 km/h 91 % 0.0 mm
02:35 6.8 °C 5.4 °C 1010.7 hPa East 1.9 km/h 3.7 km/h 91 % 0.0 mm
02:40 6.9 °C 5.5 °C 1010.7 hPa East 3.5 km/h 5.6 km/h 91 % 0.0 mm
02:45 6.9 °C 5.6 °C 1010.7 hPa ESE 2.1 km/h 3.7 km/h 91 % 0.0 mm
02:50 7.1 °C 5.5 °C 1010.7 hPa East 3.9 km/h 5.6 km/h 90 % 0.0 mm
02:55 7.1 °C 5.5 °C 1010.7 hPa ESE 3.4 km/h 5.6 km/h 90 % 0.0 mm
03:01 7.1 °C 5.5 °C 1010.4 hPa East 2.3 km/h 5.6 km/h 90 % 0.0 mm
03:06 7.2 °C 5.7 °C 1010.4 hPa East 1.8 km/h 5.6 km/h 90 % 0.0 mm
03:11 7.6 °C 5.9 °C 1010.4 hPa ENE 2.9 km/h 5.6 km/h 89 % 0.0 mm
03:16 8.1 °C 5.7 °C 1010.4 hPa NE 3.9 km/h 8.0 km/h 85 % 0.0 mm
03:21 8.2 °C 5.6 °C 1010.4 hPa NNW 2.7 km/h 5.6 km/h 84 % 0.0 mm
03:26 8.2 °C 5.6 °C 1010.0 hPa North 1.4 km/h 3.7 km/h 84 % 0.0 mm
03:31 8.2 °C 5.6 °C 1010.0 hPa North 0.8 km/h 1.9 km/h 84 % 0.0 mm
03:36 8.2 °C 5.6 °C 1010.0 hPa NNE 1.8 km/h 4.8 km/h 84 % 0.0 mm
03:41 8.2 °C 5.7 °C 1010.0 hPa North 2.7 km/h 5.6 km/h 84 % 0.0 mm
03:46 8.4 °C 6.0 °C 1010.0 hPa NNW 1.6 km/h 3.7 km/h 85 % 0.0 mm
03:51 8.4 °C 5.8 °C 1010.0 hPa Calm   1.9 km/h 84 % 0.0 mm
03:56 8.3 °C 5.7 °C 1009.7 hPa NW 0.2 km/h 1.9 km/h 84 % 0.0 mm
04:01 8.2 °C 5.8 °C 1009.7 hPa NW 0.3 km/h 3.7 km/h 85 % 0.0 mm
04:06 8.1 °C 5.7 °C 1009.7 hPa NW 2.7 km/h 3.7 km/h 85 % 0.0 mm
04:13 8.2 °C 5.8 °C 1009.7 hPa North 1.0 km/h 1.9 km/h 85 % 0.0 mm
04:18 8.1 °C 5.8 °C 1009.7 hPa North 0.5 km/h 3.7 km/h 86 % 0.0 mm
04:23 7.9 °C 5.7 °C 1009.7 hPa Calm   1.9 km/h 86 % 0.0 mm
04:27 7.9 °C 5.8 °C 1009.7 hPa NW 1.8 km/h 3.7 km/h 87 % 0.0 mm
04:29 7.9 °C 5.8 °C 1009.7 hPa NW 1.9 km/h 3.7 km/h 87 % 0.0 mm
04:33 8.0 °C 5.9 °C 1009.7 hPa NW 1.0 km/h 4.8 km/h 87 % 0.0 mm
04:37 8.1 °C 6.1 °C 1009.4 hPa West 2.7 km/h 5.6 km/h 87 % 0.0 mm
04:41 8.1 °C 6.0 °C 1009.4 hPa WSW 0.5 km/h 1.9 km/h 87 % 0.0 mm
04:44 8.0 °C 5.9 °C 1009.4 hPa SSW 5.1 km/h 8.0 km/h 87 % 0.0 mm
04:49 7.9 °C 5.9 °C 1009.4 hPa West 2.9 km/h 5.6 km/h 87 % 0.0 mm
04:54 7.9 °C 5.8 °C 1009.4 hPa SW 2.6 km/h 5.6 km/h 87 % 0.0 mm
04:59 7.7 °C 5.7 °C 1009.0 hPa NNW 1.0 km/h 3.7 km/h 87 % 0.0 mm
05:04 7.8 °C 5.9 °C 1009.0 hPa NNW 1.0 km/h 3.7 km/h 88 % 0.0 mm
05:09 7.9 °C 5.9 °C 1009.0 hPa NW 0.8 km/h 3.7 km/h 87 % 0.0 mm
05:14 8.1 °C 6.0 °C 1009.0 hPa West 0.3 km/h 1.9 km/h 87 % 0.0 mm
05:19 8.1 °C 6.0 °C 1008.7 hPa WSW 2.4 km/h 5.6 km/h 87 % 0.0 mm
05:24 8.1 °C 6.1 °C 1009.0 hPa SW 3.9 km/h 5.6 km/h 87 % 0.0 mm
05:29 7.9 °C 5.9 °C 1008.7 hPa West 3.1 km/h 6.4 km/h 87 % 0.0 mm
05:34 7.9 °C 6.2 °C 1008.7 hPa SW 6.0 km/h 9.7 km/h 89 % 0.0 mm
05:40 8.1 °C 6.3 °C 1009.0 hPa SW 2.6 km/h 6.4 km/h 89 % 0.0 mm
05:45 8.2 °C 6.3 °C 1009.0 hPa WSW 6.0 km/h 11.3 km/h 88 % 0.0 mm
05:50 7.9 °C 6.1 °C 1008.7 hPa North 3.2 km/h 6.4 km/h 88 % 0.0 mm
05:55 7.7 °C 6.0 °C 1008.7 hPa SW 1.8 km/h 3.7 km/h 89 % 0.0 mm
06:00 7.7 °C 6.0 °C 1008.7 hPa SW 2.3 km/h 3.7 km/h 89 % 0.0 mm
06:05 7.9 °C 6.2 °C 1008.7 hPa WSW 3.1 km/h 6.4 km/h 89 % 0.0 mm
06:10 8.0 °C 6.3 °C 1008.7 hPa West 1.4 km/h 5.6 km/h 89 % 0.0 mm
06:15 7.9 °C 6.2 °C 1008.7 hPa West 1.8 km/h 3.7 km/h 89 % 0.0 mm
06:20 7.9 °C 6.4 °C 1008.4 hPa West 2.4 km/h 5.6 km/h 90 % 0.0 mm
06:25 8.2 °C 6.6 °C 1008.4 hPa SSW 6.4 km/h 9.7 km/h 90 % 0.0 mm
06:30 8.3 °C 6.6 °C 1008.4 hPa SW 3.7 km/h 7.4 km/h 89 % 0.0 mm
06:35 8.3 °C 6.6 °C 1008.4 hPa WNW 3.7 km/h 5.6 km/h 89 % 0.0 mm
06:40 8.3 °C 6.6 °C 1008.0 hPa SW 4.3 km/h 8.0 km/h 89 % 0.0 mm
06:45 8.3 °C 6.6 °C 1008.0 hPa West 0.3 km/h 1.9 km/h 89 % 0.0 mm
06:50 8.2 °C 6.5 °C 1008.0 hPa WNW 1.3 km/h 1.9 km/h 89 % 0.0 mm
06:55 8.2 °C 6.3 °C 1008.0 hPa NNW 1.3 km/h 3.2 km/h 88 % 0.0 mm
07:00 8.2 °C 6.3 °C 1008.0 hPa ENE 0.2 km/h 1.9 km/h 88 % 0.0 mm
07:06 8.0 °C 5.9 °C 1008.0 hPa ENE 0.2 km/h 1.9 km/h 87 % 0.0 mm
07:11 7.8 °C 5.9 °C 1008.0 hPa Calm     88 % 0.0 mm
07:16 7.6 °C 5.7 °C 1007.7 hPa ENE 0.3 km/h 1.9 km/h 88 % 0.0 mm
07:21 7.6 °C 5.7 °C 1007.7 hPa ENE 0.3 km/h 1.9 km/h 88 % 0.0 mm
07:26 7.6 °C 5.9 °C 1007.7 hPa ENE 1.6 km/h 3.7 km/h 89 % 0.0 mm
07:31 7.6 °C 5.6 °C 1007.7 hPa ENE 0.8 km/h 1.9 km/h 87 % 0.0 mm
07:36 7.3 °C 5.4 °C 1007.7 hPa NW 1.0 km/h 3.7 km/h 88 % 0.0 mm
07:41 7.3 °C 5.4 °C 1007.7 hPa North 0.6 km/h 1.9 km/h 88 % 0.0 mm
07:46 7.4 °C 5.7 °C 1007.7 hPa West 2.4 km/h 6.4 km/h 89 % 0.0 mm
07:51 7.6 °C 5.7 °C 1007.3 hPa West 0.8 km/h 3.7 km/h 88 % 0.0 mm
07:56 7.7 °C 5.8 °C 1007.3 hPa WNW 0.8 km/h 3.7 km/h 88 % 0.0 mm
08:01 7.8 °C 5.9 °C 1007.3 hPa NW 1.0 km/h 3.7 km/h 88 % 0.0 mm
08:06 8.0 °C 6.1 °C 1007.3 hPa North 0.8 km/h 3.7 km/h 88 % 0.0 mm
08:11 8.0 °C 5.9 °C 1007.3 hPa NW 1.8 km/h 4.8 km/h 87 % 0.0 mm
08:16 8.1 °C 6.2 °C 1007.3 hPa NW 1.4 km/h 3.7 km/h 88 % 0.0 mm
08:21 8.2 °C 6.1 °C 1007.3 hPa SW 1.8 km/h 7.4 km/h 87 % 0.0 mm
08:26 8.3 °C 6.2 °C 1007.3 hPa SSW 1.6 km/h 3.7 km/h 87 % 0.0 mm
08:31 8.2 °C 6.3 °C 1007.3 hPa West 2.3 km/h 5.6 km/h 88 % 0.0 mm
08:37 8.2 °C 6.3 °C 1007.3 hPa Calm     88 % 0.0 mm
08:42 8.1 °C 6.2 °C 1007.3 hPa East 1.8 km/h 3.7 km/h 88 % 0.0 mm
08:47 7.9 °C 6.1 °C 1007.3 hPa ENE 1.4 km/h 3.7 km/h 88 % 0.0 mm
08:52 8.0 °C 6.3 °C 1007.3 hPa ENE 0.3 km/h 1.9 km/h 89 % 0.0 mm
08:57 8.1 °C 6.4 °C 1007.3 hPa ENE 1.3 km/h 1.9 km/h 89 % 0.0 mm
09:02 8.4 °C 6.7 °C 1007.3 hPa East 0.8 km/h 3.7 km/h 89 % 0.0 mm
09:07 8.7 °C 6.8 °C 1007.3 hPa East 0.3 km/h 1.9 km/h 88 % 0.0 mm
09:12 8.9 °C 6.9 °C 1007.3 hPa North 0.2 km/h 1.9 km/h 87 % 0.0 mm
09:17 9.3 °C 7.3 °C 1007.3 hPa North 0.5 km/h 1.9 km/h 87 % 0.0 mm
09:22 9.8 °C 7.4 °C 1007.0 hPa North 1.9 km/h 3.7 km/h 85 % 0.0 mm
09:27 9.9 °C 7.6 °C 1007.0 hPa North 0.8 km/h 1.9 km/h 85 % 0.0 mm
09:32 10.2 °C 7.6 °C 1007.0 hPa North 1.0 km/h 1.9 km/h 84 % 0.0 mm
09:37 10.3 °C 7.7 °C 1007.0 hPa North 0.5 km/h 3.2 km/h 84 % 0.0 mm
09:42 10.4 °C 7.5 °C 1006.7 hPa West 2.6 km/h 4.8 km/h 82 % 0.0 mm
09:47 10.4 °C 7.7 °C 1006.7 hPa Calm     83 % 0.0 mm
09:52 10.3 °C 7.6 °C 1006.7 hPa Calm     83 % 0.0 mm
09:57 10.6 °C 7.8 °C 1006.7 hPa NNW 0.8 km/h 5.6 km/h 83 % 0.0 mm
10:03 10.9 °C 8.1 °C 1006.7 hPa West 1.1 km/h 1.9 km/h 83 % 0.0 mm
10:08 11.3 °C 8.1 °C 1006.7 hPa NW 4.0 km/h 7.4 km/h 81 % 0.0 mm
10:13 11.2 °C 7.7 °C 1006.7 hPa WNW 2.7 km/h 11.1 km/h 79 % 0.0 mm
10:18 11.1 °C 7.8 °C 1006.7 hPa West 5.6 km/h 11.3 km/h 80 % 0.0 mm
10:23 11.1 °C 7.6 °C 1006.3 hPa NW 8.0 km/h 11.3 km/h 79 % 0.0 mm
10:28 11.2 °C 7.4 °C 1006.3 hPa NNW 4.8 km/h 9.7 km/h 78 % 0.0 mm
10:33 11.3 °C 7.6 °C 1006.3 hPa NNE 4.5 km/h 13.0 km/h 78 % 0.0 mm
10:38 11.4 °C 7.7 °C 1006.3 hPa NNE 4.0 km/h 16.1 km/h 78 % 0.0 mm
10:42 11.4 °C 7.3 °C 1006.3 hPa NW 7.2 km/h 16.7 km/h 76 % 0.0 mm
10:47 11.3 °C 7.4 °C 1006.3 hPa SW 5.0 km/h 13.0 km/h 77 % 0.0 mm
10:52 11.2 °C 7.5 °C 1006.3 hPa NNW 1.3 km/h 3.7 km/h 78 % 0.0 mm
10:57 11.3 °C 7.8 °C 1006.0 hPa NW 3.1 km/h 6.4 km/h 79 % 0.0 mm
11:02 11.5 °C 8.0 °C 1006.0 hPa West 5.0 km/h 11.3 km/h 79 % 0.0 mm
11:07 11.9 °C 8.6 °C 1006.0 hPa WNW 3.5 km/h 6.4 km/h 80 % 0.0 mm
11:12 12.1 °C 8.2 °C 1006.0 hPa West 5.6 km/h 11.1 km/h 77 % 0.0 mm
11:17 12.1 °C 8.3 °C 1005.6 hPa NW 4.5 km/h 8.0 km/h 78 % 0.0 mm
11:22 11.8 °C 7.9 °C 1005.6 hPa SW 8.7 km/h 22.5 km/h 77 % 0.0 mm
11:27 11.7 °C 8.2 °C 1005.6 hPa NW 4.8 km/h 8.0 km/h 79 % 0.0 mm
11:32 11.7 °C 8.2 °C 1005.6 hPa West 7.7 km/h 12.9 km/h 79 % 0.0 mm
11:38 11.6 °C 7.9 °C 1005.6 hPa WNW 4.7 km/h 14.8 km/h 78 % 0.0 mm
11:43 11.6 °C 8.3 °C 1005.3 hPa West 5.0 km/h 8.0 km/h 80 % 0.0 mm
11:48 11.7 °C 8.2 °C 1005.0 hPa WNW 5.5 km/h 18.5 km/h 79 % 0.0 mm
11:53 11.8 °C 8.1 °C 1005.0 hPa NNW 6.4 km/h 13.0 km/h 78 % 0.0 mm
11:58 11.9 °C 8.2 °C 1005.0 hPa WSW 7.4 km/h 14.8 km/h 78 % 0.0 mm
12:03 11.9 °C 8.2 °C 1005.0 hPa NNE 4.2 km/h 9.7 km/h 78 % 0.0 mm
12:08 11.9 °C 8.3 °C 1005.0 hPa SSW 5.3 km/h 11.3 km/h 79 % 0.0 mm
12:13 11.9 °C 8.6 °C 1005.0 hPa SSW 7.9 km/h 13.0 km/h 80 % 0.0 mm
12:18 12.0 °C 8.7 °C 1004.6 hPa WNW 10.3 km/h 16.7 km/h 80 % 0.0 mm
12:23 12.2 °C 8.6 °C 1004.6 hPa WNW 13.2 km/h 20.9 km/h 79 % 0.0 mm
12:28 12.2 °C 8.9 °C 1004.6 hPa WSW 7.1 km/h 12.9 km/h 80 % 0.0 mm
12:33 12.2 °C 9.0 °C 1004.6 hPa WNW 7.6 km/h 12.9 km/h 81 % 0.0 mm
12:38 12.1 °C 9.1 °C 1004.3 hPa NW 10.6 km/h 18.5 km/h 82 % 0.0 mm
12:43 11.9 °C 9.1 °C 1004.3 hPa West 9.3 km/h 18.5 km/h 83 % 0.0 mm
12:48 11.8 °C 9.2 °C 1004.3 hPa WSW 7.7 km/h 18.5 km/h 84 % 0.0 mm
12:53 11.8 °C 9.2 °C 1003.9 hPa West 6.9 km/h 16.1 km/h 84 % 0.0 mm
12:58 11.9 °C 9.4 °C 1003.9 hPa WNW 6.9 km/h 13.0 km/h 85 % 0.0 mm
13:04 12.0 °C 9.4 °C 1003.6 hPa WSW 11.4 km/h 27.4 km/h 84 % 0.0 mm
13:09 12.2 °C 9.6 °C 1003.6 hPa SE 14.5 km/h 25.7 km/h 84 % 0.0 mm
13:14 12.2 °C 9.6 °C 1003.6 hPa NNW 10.0 km/h 16.7 km/h 84 % 0.0 mm
13:19 12.2 °C 9.7 °C 1003.6 hPa North 7.4 km/h 11.1 km/h 85 % 0.0 mm
13:24 12.2 °C 9.7 °C 1003.6 hPa West 7.9 km/h 18.5 km/h 85 % 0.0 mm
13:29 12.2 °C 9.7 °C 1003.6 hPa SW 7.4 km/h 14.8 km/h 85 % 0.0 mm
13:34 12.2 °C 9.7 °C 1003.3 hPa SSW 8.7 km/h 19.3 km/h 85 % 0.0 mm
13:39 12.1 °C 9.8 °C 1003.3 hPa SW 10.8 km/h 18.5 km/h 86 % 0.0 mm
13:44 12.1 °C 9.8 °C 1003.3 hPa WSW 9.0 km/h 14.8 km/h 86 % 0.0 mm
13:49 12.3 °C 10.1 °C 1003.3 hPa NW 8.8 km/h 16.7 km/h 86 % 0.0 mm
13:54 12.6 °C 10.3 °C 1003.3 hPa WNW 9.7 km/h 16.1 km/h 86 % 0.0 mm
13:59 12.6 °C 10.2 °C 1002.9 hPa NW 7.4 km/h 16.1 km/h 85 % 0.0 mm
14:04 12.6 °C 10.2 °C 1002.9 hPa NNW 9.7 km/h 16.7 km/h 85 % 0.0 mm
14:09 12.5 °C 10.1 °C 1002.9 hPa West 9.7 km/h 18.5 km/h 85 % 0.0 mm
14:14 12.5 °C 10.2 °C 1002.6 hPa East 4.8 km/h 16.7 km/h 86 % 0.0 mm
14:19 12.7 °C 10.4 °C 1002.6 hPa NW 9.3 km/h 18.5 km/h 86 % 0.0 mm
14:24 12.8 °C 10.6 °C 1002.6 hPa North 8.7 km/h 16.1 km/h 86 % 0.0 mm
14:29 12.8 °C 10.6 °C 1002.6 hPa SSE 9.3 km/h 17.7 km/h 86 % 0.0 mm
14:35 12.8 °C 10.4 °C 1002.3 hPa North 6.4 km/h 14.8 km/h 85 % 0.0 mm
14:40 12.7 °C 10.4 °C 1002.6 hPa WNW 6.4 km/h 12.9 km/h 86 % 0.0 mm
14:45 12.6 °C 10.3 °C 1002.3 hPa NW 3.4 km/h 12.9 km/h 86 % 0.0 mm
14:50 12.7 °C 10.4 °C 1002.3 hPa SW 5.6 km/h 9.7 km/h 86 % 0.0 mm
14:55 12.8 °C 10.5 °C 1001.9 hPa West 7.1 km/h 24.1 km/h 86 % 0.0 mm
15:00 12.9 °C 10.6 °C 1001.9 hPa North 11.3 km/h 17.7 km/h 86 % 0.0 mm
15:05 12.9 °C 10.5 °C 1001.9 hPa WSW 6.0 km/h 22.2 km/h 85 % 0.0 mm
15:10 12.9 °C 10.5 °C 1001.9 hPa NW 10.6 km/h 19.3 km/h 85 % 0.0 mm
15:15 12.9 °C 10.6 °C 1001.9 hPa NNE 11.4 km/h 22.5 km/h 86 % 0.0 mm
15:20 12.8 °C 10.7 °C 1001.9 hPa SW 9.3 km/h 16.7 km/h 87 % 0.0 mm
15:25 12.7 °C 10.6 °C 1001.6 hPa WNW 5.0 km/h 14.8 km/h 87 % 0.0 mm
15:30 12.7 °C 10.8 °C 1001.6 hPa West 10.9 km/h 22.5 km/h 88 % 0.0 mm
15:35 12.8 °C 10.7 °C 1001.6 hPa SW 10.6 km/h 20.9 km/h 87 % 0.0 mm
15:40 12.8 °C 10.7 °C 1001.2 hPa WNW 7.2 km/h 13.0 km/h 87 % 0.0 mm
15:45 12.9 °C 10.8 °C 1001.2 hPa NW 7.7 km/h 19.3 km/h 87 % 0.0 mm
Renvyle Weather
Compliments of Weather Underground - 2.25 mb

Script developed by  Jim McMurry - jmcmurry@mwt.net Adapted for the template by  Wim van der Kuil - Leuven-Template.eu

You find our weather info also at:

UK Metoffice

European Weather Network

Weather Underground

Equipment we use:

Weather-station
Davis Vantage Vue

Weather-program
Weather Display

Weather-server
Dell 3050 Micro Desktop

Provider
RS Hosting

Davis Vantage Vue

Weather Display

Dell 3050 Micro Desktop

RS Hosting